createdAt,value
2023-06-26T00:03:18.492Z,57.3
2023-06-26T00:08:21.508Z,57.2
2023-06-26T00:13:21.482Z,56.9
2023-06-26T00:18:21.871Z,56.9
2023-06-26T00:23:22.411Z,56.9
2023-06-26T00:28:23.164Z,57.1
2023-06-26T00:33:26.634Z,56.8
2023-06-26T00:38:26.512Z,56.8
2023-06-26T00:43:26.959Z,56.8
2023-06-26T00:48:27.103Z,56.9
2023-06-26T00:53:27.250Z,56.9
2023-06-26T00:58:27.776Z,57.2
2023-06-26T01:03:28.278Z,57.1
2023-06-26T01:08:28.739Z,57.2
2023-06-26T01:13:29.271Z,57
2023-06-26T01:18:29.706Z,57.2
2023-06-26T01:23:32.939Z,57
2023-06-26T01:28:32.983Z,56.8
2023-06-26T01:33:33.998Z,56.8
2023-06-26T01:38:37.091Z,56.6
2023-06-26T01:43:37.781Z,56.8
2023-06-26T01:48:38.197Z,56.8
2023-06-26T01:53:38.687Z,56.8
2023-06-26T01:58:39.294Z,56.7
2023-06-26T02:03:39.739Z,56.7
2023-06-26T02:08:39.920Z,56.7
2023-06-26T02:13:40.105Z,56.6
2023-06-26T02:18:38.960Z,56.6
2023-06-26T02:23:42.349Z,56.6
2023-06-26T02:28:42.466Z,56.4
2023-06-26T02:33:43.479Z,56.5
2023-06-26T02:38:43.906Z,56.5
2023-06-26T02:43:47.125Z,56.7
2023-06-26T02:48:49.915Z,56.5
2023-06-26T02:53:49.859Z,56.5
2023-06-26T02:58:53.240Z,56.4
2023-06-26T03:03:55.949Z,56.4
2023-06-26T03:08:56.032Z,56.5
2023-06-26T03:13:56.378Z,56.3
2023-06-26T03:18:59.544Z,56.4
2023-06-26T03:24:02.278Z,56.4
2023-06-26T03:29:05.161Z,56.4
2023-06-26T03:34:05.046Z,56.6
2023-06-26T03:39:05.540Z,56.5
2023-06-26T03:44:06.066Z,56.6
2023-06-26T03:49:11.010Z,56.7
2023-06-26T03:54:09.171Z,56.5
2023-06-26T03:59:09.450Z,56.6
2023-06-26T04:04:09.810Z,56.6
2023-06-26T04:09:10.230Z,56.8
2023-06-26T04:14:13.487Z,57
2023-06-26T04:19:13.678Z,57.2
2023-06-26T04:24:15.763Z,56.8
2023-06-26T04:34:16.435Z,56.4
2023-06-26T04:39:16.856Z,56.4
2023-06-26T04:44:17.089Z,56.6
2023-06-26T04:49:17.627Z,56.5
2023-06-26T04:54:18.137Z,56.5
2023-06-26T04:59:21.411Z,56.3
2023-06-26T05:04:24.007Z,56.4
2023-06-26T05:09:24.149Z,56.4
2023-06-26T05:14:25.470Z,56.6
2023-06-26T05:19:27.437Z,56.5
2023-06-26T05:24:28.102Z,56.7
2023-06-26T05:29:30.962Z,56.6
2023-06-26T05:34:33.590Z,56.5
2023-06-26T05:39:36.192Z,56.3
2023-06-26T05:44:36.239Z,58.9
2023-06-26T05:49:36.718Z,58.9
2023-06-26T05:54:37.338Z,59.5
2023-06-26T05:59:37.644Z,59.6
2023-06-26T06:04:40.702Z,59.6
2023-06-26T06:09:40.708Z,59.9
2023-06-26T06:14:43.528Z,59.7
2023-06-26T06:19:46.368Z,59.8
2023-06-26T06:24:46.475Z,59.8
2023-06-26T06:29:47.121Z,59.8
2023-06-26T06:34:47.553Z,59.7
2023-06-26T06:39:48.140Z,59.9
2023-06-26T06:44:51.442Z,59.5
2023-06-26T06:49:51.363Z,59.7
2023-06-26T06:54:54.718Z,59.4
2023-06-26T06:59:54.696Z,58.7
2023-06-26T07:04:55.174Z,59.6
2023-06-26T07:09:55.805Z,59.7
2023-06-26T07:14:56.420Z,59.7
2023-06-26T07:19:57.452Z,59.8
2023-06-26T07:25:00.710Z,59.9
2023-06-26T07:30:03.427Z,59.9
2023-06-26T07:35:03.135Z,60
2023-06-26T07:40:03.587Z,59.9
2023-06-26T07:45:04.217Z,60
2023-06-26T07:50:04.559Z,60
2023-06-26T07:55:07.870Z,60.1
2023-06-26T08:00:10.381Z,60.1
2023-06-26T08:05:13.485Z,60.1
2023-06-26T08:10:13.441Z,60.1
2023-06-26T08:15:13.741Z,60.2
2023-06-26T08:20:14.122Z,60.3
2023-06-26T08:25:14.662Z,60.3
2023-06-26T08:30:15.180Z,60.2
2023-06-26T08:35:15.589Z,60.3
2023-06-26T08:40:15.858Z,60.3
2023-06-26T08:45:16.275Z,60.2
2023-06-26T08:50:16.554Z,60.3
2023-06-26T08:55:19.733Z,60.2
2023-06-26T09:00:20.093Z,60.2
2023-06-26T09:05:20.383Z,60.1
2023-06-26T09:10:23.416Z,60.3
2023-06-26T09:15:26.161Z,60.3
2023-06-26T09:20:28.661Z,60.3
2023-06-26T09:25:28.864Z,60.2
2023-06-26T09:30:29.627Z,60.3
2023-06-26T09:35:30.010Z,60.3
2023-06-26T09:40:33.130Z,60.3
2023-06-26T09:45:33.190Z,60.4
2023-06-26T09:50:34.258Z,60.6
2023-06-26T09:55:34.647Z,60.6
2023-06-26T10:00:34.881Z,60.7
2023-06-26T10:05:35.518Z,60.6
2023-06-26T10:10:35.938Z,60.8
2023-06-26T10:15:36.477Z,60.7
2023-06-26T10:20:39.932Z,60.5
2023-06-26T10:25:39.650Z,60.7
2023-06-26T10:30:42.806Z,60.7
2023-06-26T10:35:46.549Z,60.8
2023-06-26T10:40:46.359Z,60.8
2023-06-26T10:45:46.785Z,60.7
2023-06-26T10:50:47.274Z,60.6
2023-06-26T10:55:48.027Z,60.5
2023-06-26T11:00:48.284Z,60.6
2023-06-26T11:05:48.656Z,60.5
2023-06-26T11:10:51.696Z,60.3
2023-06-26T11:15:51.418Z,60.4
2023-06-26T11:20:51.918Z,60.3
2023-06-26T11:25:53.618Z,60.3
2023-06-26T11:30:53.801Z,60.4
2023-06-26T11:35:54.867Z,60.3
2023-06-26T11:40:55.635Z,60.2
2023-06-26T11:45:56.029Z,60
2023-06-26T11:50:59.348Z,60.3
2023-06-26T11:56:02.261Z,60.2
2023-06-26T12:01:04.779Z,60.1
2023-06-26T12:06:04.772Z,60.2
2023-06-26T12:11:10.153Z,60.1
2023-06-26T12:16:09.968Z,60
2023-06-26T12:21:13.205Z,60
2023-06-26T12:26:15.940Z,59
2023-06-26T12:31:16.008Z,59.8
2023-06-26T12:36:16.413Z,59.7
2023-06-26T12:41:19.839Z,59.6
2023-06-26T12:46:19.617Z,59.3
2023-06-26T12:51:22.704Z,59.2
2023-06-26T12:56:22.428Z,59.2
2023-06-26T13:01:23.061Z,58.5
2023-06-26T13:06:23.479Z,55
2023-06-26T13:11:25.458Z,58.6
2023-06-26T13:16:24.412Z,58.6
2023-06-26T13:21:24.991Z,58.6
2023-06-26T13:26:36.422Z,58.6
2023-06-26T13:31:28.831Z,58.6
2023-06-26T13:36:28.857Z,58.6
2023-06-26T13:41:29.261Z,58.3
2023-06-26T13:46:32.423Z,58.6
2023-06-26T13:51:32.288Z,58.7
2023-06-26T13:56:35.500Z,58.7
2023-06-26T14:01:38.186Z,58.6
2023-06-26T14:06:38.114Z,58.6
2023-06-26T14:11:41.178Z,58.6
2023-06-26T14:16:41.283Z,58.6
2023-06-26T14:21:42.383Z,58.6
2023-06-26T14:26:43.649Z,58.5
2023-06-26T14:32:03.271Z,58.6
2023-06-26T14:37:01.153Z,58.5
2023-06-26T14:42:01.636Z,58.6
2023-06-26T14:47:02.087Z,58.7
2023-06-26T14:52:02.560Z,58.7
2023-06-26T14:57:03.126Z,58.8
2023-06-26T15:02:03.302Z,58.6
2023-06-26T15:07:03.656Z,58.6
2023-06-26T15:12:03.933Z,58.7
2023-06-26T15:17:04.386Z,58.6
2023-06-26T15:22:04.750Z,58.6
2023-06-26T15:27:04.964Z,58.6
2023-06-26T15:32:05.483Z,58.4
2023-06-26T15:37:05.987Z,58.7
2023-06-26T15:42:06.637Z,58.7
2023-06-26T15:47:07.101Z,58.9
2023-06-26T15:52:10.341Z,58.7
2023-06-26T15:57:10.284Z,58.9
2023-06-26T16:02:10.538Z,59.1
2023-06-26T16:07:11.286Z,59.1
2023-06-26T16:12:11.912Z,59.2
2023-06-26T16:17:12.161Z,59.3
2023-06-26T16:22:12.645Z,59.3
2023-06-26T16:27:13.180Z,59.5
2023-06-26T16:32:13.668Z,59.6
2023-06-26T16:37:14.088Z,59.6
2023-06-26T16:42:14.282Z,59.5
2023-06-26T16:47:15.783Z,59.5
2023-06-26T16:52:15.954Z,59.5
2023-06-26T16:57:18.094Z,56.9
2023-06-26T17:02:18.263Z,59.7
2023-06-26T17:07:19.293Z,59.7
2023-06-26T17:12:20.215Z,59.7
2023-06-26T17:17:20.400Z,59.8
2023-06-26T17:22:20.932Z,59.8
2023-06-26T17:27:21.389Z,59.9
2023-06-26T17:32:22.438Z,60
2023-06-26T17:37:22.068Z,60
2023-06-26T17:42:22.602Z,60
2023-06-26T17:47:22.905Z,60.1
2023-06-26T17:52:23.521Z,59.9
2023-06-26T17:57:23.890Z,60.1
2023-06-26T18:02:24.347Z,60.2
2023-06-26T18:07:24.698Z,60.4
2023-06-26T18:12:24.958Z,60.4
2023-06-26T18:17:25.428Z,60.5
2023-06-26T18:22:25.586Z,60.4
2023-06-26T18:27:25.848Z,60.5
2023-06-26T18:32:27.422Z,60.6
2023-06-26T18:37:27.695Z,60.7
2023-06-26T18:42:27.935Z,60.8
2023-06-26T18:47:28.248Z,60.9
2023-06-26T18:52:28.838Z,60.8
2023-06-26T18:57:29.029Z,60.6
2023-06-26T19:02:29.738Z,60.9
2023-06-26T19:07:30.233Z,61
2023-06-26T19:12:30.236Z,61.1
2023-06-26T19:17:33.425Z,61.1
2023-06-26T19:22:36.135Z,61.2
2023-06-26T19:27:36.005Z,60.9
2023-06-26T19:32:36.495Z,59.7
2023-06-26T19:37:45.621Z,60.1
2023-06-26T19:42:34.583Z,59.1
2023-06-26T19:47:35.205Z,61
2023-06-26T19:52:35.549Z,59.4
2023-06-26T19:57:35.988Z,59.5
2023-06-26T20:02:36.557Z,59.5
2023-06-26T20:07:36.880Z,59.2
2023-06-26T20:12:37.415Z,59
2023-06-26T20:17:37.761Z,59.1
2023-06-26T20:22:40.828Z,58.9
2023-06-26T20:27:43.397Z,59
2023-06-26T20:32:43.276Z,59
2023-06-26T20:37:43.475Z,59.1
2023-06-26T20:42:44.028Z,58.7
2023-06-26T20:47:48.359Z,59.1
2023-06-26T20:52:50.914Z,58.9
2023-06-26T20:57:53.650Z,58.8
2023-06-26T21:02:56.532Z,58.7
2023-06-26T21:07:56.430Z,59.4
2023-06-26T21:12:56.936Z,58.4
2023-06-26T21:18:00.079Z,58.6
2023-06-26T21:23:00.167Z,58.4
2023-06-26T21:28:00.636Z,58.6
2023-06-26T21:33:03.755Z,58.4
2023-06-26T21:38:06.570Z,58.4
2023-06-26T21:43:06.613Z,58.3
2023-06-26T21:48:09.663Z,58.6
2023-06-26T21:53:10.037Z,59.6
2023-06-26T21:58:13.304Z,58.6
2023-06-26T22:03:13.650Z,58.9
2023-06-26T22:08:14.216Z,58.7
2023-06-26T22:13:14.810Z,58.5
2023-06-26T22:18:16.868Z,58.5
2023-06-26T22:23:19.881Z,59.4
2023-06-26T22:28:22.658Z,58.4
2023-06-26T22:33:22.769Z,59.1
2023-06-26T22:38:26.086Z,59.9
2023-06-26T22:43:28.985Z,60
2023-06-26T22:48:28.811Z,58.6
2023-06-26T22:53:29.522Z,58.3
2023-06-26T22:58:30.112Z,59.8
2023-06-26T23:03:30.686Z,59.8
2023-06-26T23:08:31.392Z,60.2
2023-06-26T23:13:31.824Z,60.8
2023-06-26T23:18:32.239Z,60.5
2023-06-26T23:23:33.105Z,60.8
2023-06-26T23:28:33.634Z,60.5
2023-06-26T23:33:36.083Z,60.3
2023-06-26T23:38:39.031Z,60.3
2023-06-26T23:43:38.952Z,61
2023-06-26T23:48:39.429Z,60.4
2023-06-26T23:53:40.176Z,60.9
2023-06-26T23:58:42.523Z,60
